Time;durP1;ratioP1;P1;durP2;ratioP2;P2;SDS_P1;SDS_P2;PMS_P1;PMS_P2;Temp;Humidity;BMP_temperature;BMP_pressure;BME280_temperature;BME280_humidity;BME280_pressure;Samples;Min_cycle;Max_cycle;Signal;HPM_P1;HPM_P2
2024/03/24 00:01:17;;;;;;;1.83;1.17;;;;;;;;;;5071942;28;20028;-79
2024/03/24 00:04:02;;;;;;;5.82;1.40;;;;;;;;;;5065971;28;20837;-79
2024/03/24 00:06:48;;;;;;;2.33;1.30;;;;;;;;;;5073015;28;20066;-78
2024/03/24 00:09:33;;;;;;;2.70;1.20;;;;;;;;;;5068051;28;20443;-78
2024/03/24 00:12:18;;;;;;;3.95;1.20;;;;;;;;;;5082278;28;20029;-78
2024/03/24 00:15:04;;;;;;;3.35;1.20;;;;;;;;;;5076053;28;20387;-80
2024/03/24 00:17:49;;;;;;;4.80;1.27;;;;;;;;;;5072782;28;20024;-78
2024/03/24 00:20:35;;;;;;;5.20;1.17;;;;;;;;;;5071107;28;20036;-78
2024/03/24 00:23:21;;;;;;;6.93;1.60;;;;;;;;;;5073103;28;20727;-79
2024/03/24 00:26:06;;;;;;;2.97;1.00;;;;;;;;;;5075213;28;20122;-78
2024/03/24 00:28:51;;;;;;;4.65;1.83;;;;;;;;;;5069048;28;20086;-78
2024/03/24 00:31:36;;;;;;;1.95;1.58;;;;;;;;;;5083267;28;20388;-78
2024/03/24 00:34:21;;;;;;;2.13;1.05;;;;;;;;;;5093402;28;20032;-78
2024/03/24 00:37:07;;;;;;;1.45;0.85;;;;;;;;;;5067711;28;20032;-78
2024/03/24 00:39:52;;;;;;;1.80;1.30;;;;;;;;;;5072118;28;20033;-78
2024/03/24 00:42:38;;;;;;;5.32;1.33;;;;;;;;;;5081104;28;20028;-78
2024/03/24 00:45:23;;;;;;;4.32;1.25;;;;;;;;;;5062050;28;20256;-78
2024/03/24 00:48:08;;;;;;;6.80;1.80;;;;;;;;;;5081552;28;20024;-80
2024/03/24 00:50:53;;;;;;;1.55;0.93;;;;;;;;;;5061999;28;20092;-78
2024/03/24 00:53:39;;;;;;;2.80;0.95;;;;;;;;;;5092347;28;20028;-78
2024/03/24 00:56:24;;;;;;;2.10;1.58;;;;;;;;;;5072603;28;20086;-78
2024/03/24 00:59:09;;;;;;;3.60;1.08;;;;;;;;;;5057924;28;20032;-78
2024/03/24 01:01:55;;;;;;;4.22;1.73;;;;;;;;;;5089057;28;20055;-79
2024/03/24 01:04:40;;;;;;;2.88;1.38;;;;;;;;;;5071506;28;20028;-78
2024/03/24 01:07:25;;;;;;;3.50;1.63;;;;;;;;;;5083910;28;20126;-78
2024/03/24 01:10:10;;;;;;;1.67;0.90;;;;;;;;;;5075006;28;20039;-81
2024/03/24 01:12:56;;;;;;;5.15;2.10;;;;;;;;;;5055878;28;20060;-79
2024/03/24 01:15:44;;;;;;;3.05;1.27;;;;;;;;;;5053382;28;20032;-81
2024/03/24 01:18:30;;;;;;;1.58;1.10;;;;;;;;;;5072254;28;20046;-79
2024/03/24 01:21:16;;;;;;;7.30;2.17;;;;;;;;;;5072326;28;20048;-78
2024/03/24 01:24:01;;;;;;;2.05;1.08;;;;;;;;;;5068629;28;20028;-80
2024/03/24 01:26:46;;;;;;;2.15;0.93;;;;;;;;;;5071095;28;20107;-79
2024/03/24 01:29:31;;;;;;;3.45;1.02;;;;;;;;;;5072012;28;20031;-80
2024/03/24 01:32:17;;;;;;;1.67;0.80;;;;;;;;;;5073390;28;20400;-80
2024/03/24 01:35:02;;;;;;;3.05;1.27;;;;;;;;;;5086429;28;20031;-78
2024/03/24 01:37:47;;;;;;;1.35;1.00;;;;;;;;;;5077472;28;20055;-79
2024/03/24 01:40:32;;;;;;;1.00;0.90;;;;;;;;;;5062730;28;20029;-79
2024/03/24 01:43:18;;;;;;;1.25;0.93;;;;;;;;;;5082060;28;20082;-79
2024/03/24 01:46:03;;;;;;;3.25;1.63;;;;;;;;;;5051263;28;20083;-79
2024/03/24 01:48:49;;;;;;;2.13;1.08;;;;;;;;;;5076315;28;20026;-79
2024/03/24 01:51:35;;;;;;;4.90;1.05;;;;;;;;;;5074681;28;20051;-79
2024/03/24 01:54:21;;;;;;;1.33;0.80;;;;;;;;;;5090988;28;20046;-79
2024/03/24 01:57:06;;;;;;;1.40;0.98;;;;;;;;;;5075621;28;20059;-79
2024/03/24 01:59:51;;;;;;;2.30;1.10;;;;;;;;;;5053912;28;20450;-79
2024/03/24 02:02:36;;;;;;;2.88;1.15;;;;;;;;;;5074011;28;20109;-79
2024/03/24 02:05:26;;;;;;;2.00;0.90;;;;;;;;;;5067015;28;20051;-78
2024/03/24 02:08:11;;;;;;;1.13;0.70;;;;;;;;;;5072693;28;20023;-77
2024/03/24 02:10:57;;;;;;;1.27;0.90;;;;;;;;;;5085102;28;20089;-79
2024/03/24 02:13:42;;;;;;;1.38;1.23;;;;;;;;;;5064923;28;20079;-78
2024/03/24 02:16:27;;;;;;;1.42;0.80;;;;;;;;;;5065596;28;20025;-79
2024/03/24 02:19:12;;;;;;;2.50;1.05;;;;;;;;;;5062712;28;20028;-78
2024/03/24 02:21:58;;;;;;;1.00;0.80;;;;;;;;;;5085416;28;20060;-77
2024/03/24 02:24:43;;;;;;;1.80;0.98;;;;;;;;;;5087343;28;20892;-79
2024/03/24 02:27:28;;;;;;;3.70;0.85;;;;;;;;;;5088676;28;20451;-79
2024/03/24 02:30:14;;;;;;;0.70;0.60;;;;;;;;;;5086913;28;20020;-78
2024/03/24 02:33:00;;;;;;;0.70;0.70;;;;;;;;;;5083349;28;20493;-77
2024/03/24 02:35:48;;;;;;;1.63;0.70;;;;;;;;;;5064876;28;20119;-79
2024/03/24 02:38:34;;;;;;;1.10;0.70;;;;;;;;;;5062104;28;20027;-79
2024/03/24 02:41:19;;;;;;;1.65;1.05;;;;;;;;;;5084472;28;20107;-78
2024/03/24 02:44:04;;;;;;;3.78;0.77;;;;;;;;;;5059990;28;20103;-79
2024/03/24 02:46:50;;;;;;;1.85;0.65;;;;;;;;;;5064586;28;20032;-79
2024/03/24 02:49:35;;;;;;;1.25;0.57;;;;;;;;;;5058337;28;20033;-79
2024/03/24 02:52:20;;;;;;;1.33;0.60;;;;;;;;;;5050990;28;20373;-79
2024/03/24 02:55:05;;;;;;;2.28;0.60;;;;;;;;;;5083810;28;20036;-79
2024/03/24 02:57:52;;;;;;;1.75;0.95;;;;;;;;;;5059346;28;20129;-79
2024/03/24 03:00:37;;;;;;;2.40;0.88;;;;;;;;;;5054153;28;20077;-79
2024/03/24 03:03:22;;;;;;;1.92;0.70;;;;;;;;;;5059385;28;20031;-78
2024/03/24 03:06:07;;;;;;;1.35;0.70;;;;;;;;;;5069304;28;20028;-79
2024/03/24 03:08:52;;;;;;;0.70;0.60;;;;;;;;;;5087642;28;20058;-79
2024/03/24 03:11:38;;;;;;;1.40;1.17;;;;;;;;;;5076136;28;20024;-79
2024/03/24 03:14:23;;;;;;;3.03;0.70;;;;;;;;;;5087861;28;20044;-77
2024/03/24 03:17:08;;;;;;;1.50;0.73;;;;;;;;;;5078661;28;20027;-78
2024/03/24 03:19:53;;;;;;;0.88;0.65;;;;;;;;;;5097936;28;20027;-78
2024/03/24 03:22:39;;;;;;;2.15;1.25;;;;;;;;;;5078454;28;20103;-78
2024/03/24 03:25:25;;;;;;;2.17;0.82;;;;;;;;;;5076767;28;20036;-78
2024/03/24 03:28:10;;;;;;;2.20;0.90;;;;;;;;;;5062562;28;20554;-77
2024/03/24 03:30:55;;;;;;;1.55;0.90;;;;;;;;;;5076137;28;20107;-77
2024/03/24 03:33:40;;;;;;;1.45;0.60;;;;;;;;;;5071193;28;20024;-77
2024/03/24 03:36:26;;;;;;;1.25;0.75;;;;;;;;;;5057995;28;20035;-78
2024/03/24 03:39:11;;;;;;;1.00;0.90;;;;;;;;;;5081001;28;20017;-81
2024/03/24 03:41:57;;;;;;;0.77;0.68;;;;;;;;;;5092653;28;20040;-78
2024/03/24 03:44:42;;;;;;;1.17;0.70;;;;;;;;;;5077448;28;20012;-78
2024/03/24 03:47:27;;;;;;;0.73;0.70;;;;;;;;;;5086202;28;20024;-80
2024/03/24 03:50:17;;;;;;;1.88;0.95;;;;;;;;;;5075409;28;20023;-79
2024/03/24 03:53:02;;;;;;;1.08;0.90;;;;;;;;;;5077523;28;20027;-78
2024/03/24 03:55:50;;;;;;;2.10;1.63;;;;;;;;;;5073962;28;20021;-80
2024/03/24 03:58:36;;;;;;;1.33;0.68;;;;;;;;;;5087414;28;20031;-79
2024/03/24 04:01:21;;;;;;;1.30;0.80;;;;;;;;;;5097467;28;20024;-79
2024/03/24 04:04:07;;;;;;;3.22;1.40;;;;;;;;;;5078829;28;20082;-79
2024/03/24 04:06:52;;;;;;;1.63;1.08;;;;;;;;;;5097021;28;20504;-79
2024/03/24 04:09:37;;;;;;;1.98;0.73;;;;;;;;;;5068507;28;20098;-79
2024/03/24 04:12:22;;;;;;;1.13;0.75;;;;;;;;;;5056772;28;20457;-79
2024/03/24 04:15:07;;;;;;;0.90;0.60;;;;;;;;;;5036809;28;20060;-79
2024/03/24 04:17:53;;;;;;;2.17;0.80;;;;;;;;;;5034961;28;20029;-79
2024/03/24 04:20:38;;;;;;;3.10;0.90;;;;;;;;;;5042964;28;20020;-79
2024/03/24 04:23:23;;;;;;;1.58;0.80;;;;;;;;;;5046407;28;20025;-78
2024/03/24 04:26:09;;;;;;;1.25;1.00;;;;;;;;;;5045089;28;20378;-78
2024/03/24 04:28:54;;;;;;;0.73;0.73;;;;;;;;;;5048314;28;20025;-78
2024/03/24 04:31:39;;;;;;;1.27;0.68;;;;;;;;;;5056565;28;20328;-79
2024/03/24 04:34:24;;;;;;;3.03;1.77;;;;;;;;;;5052496;28;20027;-79
2024/03/24 04:37:09;;;;;;;2.85;1.30;;;;;;;;;;5033139;28;20036;-78
2024/03/24 04:39:55;;;;;;;3.15;1.25;;;;;;;;;;5046372;28;20103;-78
2024/03/24 04:42:40;;;;;;;1.58;1.20;;;;;;;;;;5032717;28;20071;-78
2024/03/24 04:45:26;;;;;;;1.80;1.08;;;;;;;;;;5058157;28;20034;-78
2024/03/24 04:48:14;;;;;;;1.15;0.85;;;;;;;;;;5045436;28;20060;-78
2024/03/24 04:50:59;;;;;;;1.98;1.10;;;;;;;;;;5046735;28;20447;-77
2024/03/24 04:53:44;;;;;;;1.27;0.80;;;;;;;;;;5052658;28;20436;-79
2024/03/24 04:56:31;;;;;;;0.70;0.70;;;;;;;;;;5051979;28;20136;-78
2024/03/24 04:59:16;;;;;;;1.13;0.82;;;;;;;;;;5034030;28;20380;-79
2024/03/24 05:02:02;;;;;;;2.65;0.80;;;;;;;;;;5033854;28;20037;-78
2024/03/24 05:04:48;;;;;;;1.20;0.70;;;;;;;;;;5050904;28;20047;-79
2024/03/24 05:07:34;;;;;;;1.25;0.68;;;;;;;;;;5047217;28;20648;-80
2024/03/24 05:10:19;;;;;;;0.90;0.57;;;;;;;;;;5046142;28;20532;-79
2024/03/24 05:13:04;;;;;;;6.45;0.90;;;;;;;;;;5033598;28;20056;-77
2024/03/24 05:15:51;;;;;;;1.23;0.70;;;;;;;;;;5052008;28;20317;-78
2024/03/24 05:18:36;;;;;;;2.85;0.70;;;;;;;;;;5051893;28;20055;-78
2024/03/24 05:21:22;;;;;;;3.15;0.73;;;;;;;;;;5052183;28;20032;-78
2024/03/24 05:24:07;;;;;;;4.75;1.23;;;;;;;;;;5048589;28;20522;-79
2024/03/24 05:26:52;;;;;;;2.08;1.00;;;;;;;;;;5051500;28;20167;-78
2024/03/24 05:29:37;;;;;;;0.82;0.80;;;;;;;;;;5049717;28;20067;-78
2024/03/24 05:32:23;;;;;;;3.83;1.60;;;;;;;;;;5055061;28;20559;-78
2024/03/24 05:35:08;;;;;;;4.47;2.10;;;;;;;;;;5065725;28;20112;-78
2024/03/24 05:37:53;;;;;;;3.80;1.67;;;;;;;;;;5051225;28;20030;-79
2024/03/24 05:40:39;;;;;;;1.77;0.90;;;;;;;;;;5051530;28;20032;-79
2024/03/24 05:43:24;;;;;;;6.18;1.00;;;;;;;;;;5051667;28;20024;-78
2024/03/24 05:46:09;;;;;;;1.45;0.85;;;;;;;;;;5051548;28;20032;-79
2024/03/24 05:48:54;;;;;;;1.40;1.00;;;;;;;;;;5048511;28;20107;-78
2024/03/24 05:51:39;;;;;;;1.13;0.75;;;;;;;;;;5063866;28;20513;-78
2024/03/24 05:54:25;;;;;;;1.77;0.80;;;;;;;;;;5051151;28;20024;-78
2024/03/24 05:57:10;;;;;;;2.05;0.88;;;;;;;;;;5047468;28;20047;-78
2024/03/24 05:59:55;;;;;;;1.27;1.17;;;;;;;;;;5061173;28;20060;-78
2024/03/24 06:02:40;;;;;;;0.70;0.70;;;;;;;;;;5051109;28;20487;-78
2024/03/24 06:05:25;;;;;;;1.15;0.73;;;;;;;;;;5050777;28;20145;-78
2024/03/24 06:08:11;;;;;;;0.88;0.73;;;;;;;;;;5047710;28;20146;-79
2024/03/24 06:10:56;;;;;;;1.60;0.90;;;;;;;;;;5040265;28;20045;-79
2024/03/24 06:13:41;;;;;;;1.92;0.82;;;;;;;;;;5040733;28;20048;-79
2024/03/24 06:16:26;;;;;;;0.93;0.75;;;;;;;;;;5079359;28;20027;-79
2024/03/24 06:19:13;;;;;;;0.60;0.60;;;;;;;;;;5061906;28;20055;-79
2024/03/24 06:21:58;;;;;;;1.50;0.80;;;;;;;;;;5073101;28;20040;-79
2024/03/24 06:24:44;;;;;;;2.15;1.00;;;;;;;;;;5071162;28;20020;-79
2024/03/24 06:27:29;;;;;;;1.55;0.88;;;;;;;;;;5073478;28;20042;-78
2024/03/24 06:30:15;;;;;;;3.58;1.33;;;;;;;;;;5054992;28;20082;-79
2024/03/24 06:33:00;;;;;;;2.00;1.13;;;;;;;;;;5069945;28;20036;-78
2024/03/24 06:35:45;;;;;;;1.45;0.77;;;;;;;;;;5069663;28;20042;-77
2024/03/24 06:38:30;;;;;;;2.45;0.88;;;;;;;;;;5066469;28;20021;-78
2024/03/24 06:41:16;;;;;;;1.85;0.70;;;;;;;;;;5071830;28;20498;-78
2024/03/24 06:44:07;;;;;;;2.85;1.00;;;;;;;;;;5073613;28;20028;-78
2024/03/24 06:46:52;;;;;;;3.50;1.00;;;;;;;;;;5070875;28;20048;-78
2024/03/24 06:49:37;;;;;;;1.17;0.70;;;;;;;;;;5053536;28;20116;-79
2024/03/24 06:52:22;;;;;;;1.50;1.13;;;;;;;;;;5064087;28;20040;-79
2024/03/24 06:55:08;;;;;;;0.73;0.70;;;;;;;;;;5085329;28;20039;-77
2024/03/24 06:57:53;;;;;;;2.40;0.80;;;;;;;;;;5077162;28;20119;-78
2024/03/24 07:00:38;;;;;;;2.20;1.10;;;;;;;;;;5082511;28;20024;-79
2024/03/24 07:03:24;;;;;;;5.05;1.20;;;;;;;;;;5065791;28;20028;-77
2024/03/24 07:06:08;;;;;;;2.17;1.20;;;;;;;;;;5100613;28;20085;-80
2024/03/24 07:08:53;;;;;;;2.85;0.90;;;;;;;;;;5085536;28;20446;-78
2024/03/24 07:11:38;;;;;;;2.38;1.20;;;;;;;;;;5082309;28;20394;-77
2024/03/24 07:14:23;;;;;;;3.17;1.20;;;;;;;;;;5054604;28;20513;-78
2024/03/24 07:17:08;;;;;;;1.45;0.98;;;;;;;;;;5084368;28;20027;-78
2024/03/24 07:19:54;;;;;;;2.85;0.90;;;;;;;;;;5065197;28;20025;-77
2024/03/24 07:22:39;;;;;;;2.17;0.90;;;;;;;;;;5070324;28;20459;-77
2024/03/24 07:25:24;;;;;;;1.52;1.05;;;;;;;;;;5055511;28;20036;-79
2024/03/24 07:28:10;;;;;;;3.90;1.05;;;;;;;;;;5067731;28;20020;-81
2024/03/24 07:30:55;;;;;;;2.70;1.20;;;;;;;;;;5075987;28;20545;-80
2024/03/24 07:33:40;;;;;;;3.38;1.30;;;;;;;;;;5070495;28;20028;-80
2024/03/24 07:36:25;;;;;;;1.92;1.00;;;;;;;;;;5084598;28;20024;-81
2024/03/24 07:39:11;;;;;;;3.95;0.93;;;;;;;;;;5078413;28;20478;-81
2024/03/24 07:41:56;;;;;;;3.13;0.90;;;;;;;;;;5090704;28;20134;-81
2024/03/24 07:44:41;;;;;;;2.33;1.00;;;;;;;;;;5078149;28;20028;-80
2024/03/24 07:47:27;;;;;;;3.92;1.10;;;;;;;;;;5078800;28;20073;-80
2024/03/24 07:50:12;;;;;;;1.45;0.98;;;;;;;;;;5054251;28;20029;-79
2024/03/24 07:52:58;;;;;;;1.35;1.10;;;;;;;;;;5076142;28;20027;-79
2024/03/24 07:55:43;;;;;;;9.20;1.60;;;;;;;;;;5078374;28;20435;-79
2024/03/24 07:58:28;;;;;;;3.97;1.30;;;;;;;;;;5094604;28;20055;-79
2024/03/24 08:01:14;;;;;;;4.82;1.40;;;;;;;;;;5089645;28;20092;-79
2024/03/24 08:04:00;;;;;;;3.95;1.13;;;;;;;;;;5073907;28;20032;-79
2024/03/24 08:06:46;;;;;;;1.95;1.00;;;;;;;;;;5068782;28;20047;-79
2024/03/24 08:09:31;;;;;;;1.15;0.82;;;;;;;;;;5067744;28;20083;-79
2024/03/24 08:12:17;;;;;;;1.58;0.88;;;;;;;;;;5068375;28;20127;-79
2024/03/24 08:15:03;;;;;;;1.75;0.90;;;;;;;;;;5080813;28;20422;-79
2024/03/24 08:17:48;;;;;;;2.53;1.00;;;;;;;;;;5078025;28;20020;-78
2024/03/24 08:20:33;;;;;;;1.98;0.90;;;;;;;;;;5073300;28;20020;-78
2024/03/24 08:23:20;;;;;;;3.33;1.33;;;;;;;;;;5072929;28;20059;-79
2024/03/24 08:26:06;;;;;;;1.95;1.10;;;;;;;;;;5060902;28;20047;-78
2024/03/24 08:28:51;;;;;;;4.43;1.30;;;;;;;;;;5063437;28;20112;-79
2024/03/24 08:31:36;;;;;;;2.78;1.15;;;;;;;;;;5073353;28;20028;-78
2024/03/24 08:34:21;;;;;;;3.15;1.17;;;;;;;;;;5061751;28;20024;-78
2024/03/24 08:37:06;;;;;;;2.08;1.30;;;;;;;;;;5089254;28;20023;-80
2024/03/24 08:39:51;;;;;;;2.72;1.30;;;;;;;;;;5073064;28;20064;-80
2024/03/24 08:42:37;;;;;;;1.30;0.82;;;;;;;;;;5080845;28;20038;-80
2024/03/24 08:45:22;;;;;;;3.13;1.45;;;;;;;;;;5087317;28;20020;-79
2024/03/24 08:48:07;;;;;;;3.15;1.15;;;;;;;;;;5087391;28;20451;-79
2024/03/24 08:50:52;;;;;;;2.50;1.10;;;;;;;;;;5078186;28;20221;-79
2024/03/24 08:53:37;;;;;;;3.85;1.38;;;;;;;;;;5057489;28;20038;-77
2024/03/24 08:56:23;;;;;;;3.53;1.95;;;;;;;;;;5077980;28;20121;-78
2024/03/24 08:59:08;;;;;;;2.55;1.67;;;;;;;;;;5065179;28;20099;-79
2024/03/24 09:01:53;;;;;;;3.17;1.50;;;;;;;;;;5066853;28;20032;-78
2024/03/24 09:04:38;;;;;;;3.03;1.50;;;;;;;;;;5080599;28;20059;-79
2024/03/24 09:07:23;;;;;;;3.45;1.15;;;;;;;;;;5087084;28;20468;-79
2024/03/24 09:10:09;;;;;;;3.10;1.52;;;;;;;;;;5076500;28;20130;-80
2024/03/24 09:12:54;;;;;;;4.53;1.60;;;;;;;;;;5058894;28;20031;-79
2024/03/24 09:15:39;;;;;;;4.38;1.20;;;;;;;;;;5085247;28;20032;-80
2024/03/24 09:18:25;;;;;;;4.60;1.67;;;;;;;;;;5052915;28;20072;-79
2024/03/24 09:21:11;;;;;;;4.53;1.95;;;;;;;;;;5052027;28;20040;-79
2024/03/24 09:23:56;;;;;;;3.60;1.55;;;;;;;;;;5052481;28;20033;-80
2024/03/24 09:26:41;;;;;;;2.78;1.65;;;;;;;;;;5080624;28;20051;-79
2024/03/24 09:29:27;;;;;;;4.68;1.80;;;;;;;;;;5059836;28;20032;-79
2024/03/24 09:32:12;;;;;;;3.72;1.77;;;;;;;;;;5065542;28;20119;-81
2024/03/24 09:34:57;;;;;;;7.22;1.70;;;;;;;;;;5060259;28;20151;-80
2024/03/24 09:37:42;;;;;;;4.75;1.73;;;;;;;;;;5066839;28;20032;-79
2024/03/24 09:40:28;;;;;;;3.50;1.35;;;;;;;;;;5085518;28;20042;-79
2024/03/24 09:43:14;;;;;;;3.05;1.42;;;;;;;;;;5093481;28;20110;-80
2024/03/24 09:46:00;;;;;;;2.78;1.52;;;;;;;;;;5066046;28;20040;-80
2024/03/24 09:48:46;;;;;;;8.10;2.78;;;;;;;;;;5084462;28;20031;-79
2024/03/24 09:51:32;;;;;;;8.45;2.33;;;;;;;;;;5071036;28;20027;-81
2024/03/24 09:54:17;;;;;;;4.88;1.75;;;;;;;;;;5064051;28;20047;-81
2024/03/24 09:57:03;;;;;;;4.30;1.77;;;;;;;;;;5082485;28;20020;-81
2024/03/24 09:59:49;;;;;;;3.08;1.50;;;;;;;;;;5090665;28;20814;-81
2024/03/24 10:02:34;;;;;;;8.43;2.63;;;;;;;;;;5075460;28;20101;-80
2024/03/24 10:05:20;;;;;;;3.55;1.83;;;;;;;;;;5055755;28;20051;-81
2024/03/24 10:08:06;;;;;;;3.10;1.60;;;;;;;;;;5059357;28;20024;-82
2024/03/24 10:10:51;;;;;;;6.07;2.30;;;;;;;;;;5078639;28;20522;-81
2024/03/24 10:13:42;;;;;;;4.65;2.10;;;;;;;;;;5067995;28;20048;-79
2024/03/24 10:16:28;;;;;;;3.90;1.50;;;;;;;;;;5065345;28;20111;-80
2024/03/24 10:19:14;;;;;;;6.03;2.05;;;;;;;;;;5065432;28;20028;-80
2024/03/24 10:21:59;;;;;;;2.92;1.77;;;;;;;;;;5071458;28;20024;-81
2024/03/24 10:24:45;;;;;;;3.47;1.90;;;;;;;;;;5087362;28;20104;-80
2024/03/24 10:27:30;;;;;;;6.43;1.75;;;;;;;;;;5077813;28;20111;-81
2024/03/24 10:30:16;;;;;;;7.00;1.60;;;;;;;;;;5058125;28;20032;-80
2024/03/24 10:33:01;;;;;;;3.78;1.85;;;;;;;;;;5067819;28;20039;-80
2024/03/24 10:35:47;;;;;;;3.05;1.73;;;;;;;;;;5056579;28;20027;-80
2024/03/24 10:38:32;;;;;;;3.88;1.73;;;;;;;;;;5061241;28;20028;-78
2024/03/24 10:41:19;;;;;;;4.68;1.70;;;;;;;;;;5085281;28;20032;-79
2024/03/24 10:44:05;;;;;;;4.55;1.75;;;;;;;;;;5076564;28;20039;-79
2024/03/24 10:46:51;;;;;;;4.72;2.05;;;;;;;;;;5071045;28;20039;-79
2024/03/24 10:49:39;;;;;;;5.43;1.85;;;;;;;;;;5070737;28;20028;-78
2024/03/24 10:52:29;;;;;;;3.72;1.50;;;;;;;;;;5059900;28;20036;-78
2024/03/24 10:55:15;;;;;;;6.25;1.75;;;;;;;;;;5073419;28;20032;-79
2024/03/24 10:58:00;;;;;;;5.40;1.48;;;;;;;;;;5055624;28;20391;-79
2024/03/24 11:00:46;;;;;;;6.45;1.60;;;;;;;;;;5071617;28;20028;-79
2024/03/24 11:03:31;;;;;;;2.33;1.73;;;;;;;;;;5073456;28;20032;-79
2024/03/24 11:06:16;;;;;;;4.30;1.50;;;;;;;;;;5064814;28;20027;-79
2024/03/24 11:09:02;;;;;;;3.70;1.35;;;;;;;;;;5084771;28;20020;-79
2024/03/24 11:11:47;;;;;;;5.03;2.25;;;;;;;;;;5092196;28;20059;-79
2024/03/24 11:14:33;;;;;;;3.13;1.73;;;;;;;;;;5065606;28;20045;-80
2024/03/24 11:17:19;;;;;;;4.80;1.70;;;;;;;;;;5050835;28;20471;-79
2024/03/24 11:20:06;;;;;;;4.25;1.60;;;;;;;;;;5065257;28;20068;-79
2024/03/24 11:22:53;;;;;;;3.40;1.88;;;;;;;;;;5055502;28;20386;-79
2024/03/24 11:25:39;;;;;;;4.80;1.55;;;;;;;;;;5056421;28;20394;-80
2024/03/24 11:28:43;;;;;;;3.88;2.10;;;;;;;;;;5062105;28;20024;-79
2024/03/24 11:31:28;;;;;;;2.42;1.50;;;;;;;;;;5069064;28;20047;-80
2024/03/24 11:34:15;;;;;;;3.40;1.50;;;;;;;;;;5055164;28;20044;-80
2024/03/24 11:37:01;;;;;;;2.85;1.77;;;;;;;;;;5066460;28;20040;-80
2024/03/24 11:39:47;;;;;;;3.53;1.65;;;;;;;;;;5086293;28;20501;-80
2024/03/24 11:42:33;;;;;;;4.32;2.00;;;;;;;;;;5073998;28;20450;-80
2024/03/24 11:45:24;;;;;;;5.78;1.70;;;;;;;;;;5071138;28;20086;-80
2024/03/24 11:48:25;;;;;;;3.22;1.30;;;;;;;;;;5059000;28;20431;-80
2024/03/24 11:51:11;;;;;;;4.10;1.50;;;;;;;;;;5074527;28;20024;-79
2024/03/24 11:53:57;;;;;;;4.38;1.65;;;;;;;;;;5078431;28;20039;-80
2024/03/24 11:56:42;;;;;;;4.45;2.10;;;;;;;;;;5083214;28;20028;-80
2024/03/24 11:59:27;;;;;;;4.57;1.73;;;;;;;;;;5060096;28;20088;-80
2024/03/24 12:02:12;;;;;;;3.70;1.40;;;;;;;;;;5064194;28;20122;-79
2024/03/24 12:04:58;;;;;;;2.72;1.80;;;;;;;;;;5079355;28;20044;-80
2024/03/24 12:07:43;;;;;;;3.13;1.85;;;;;;;;;;5088622;28;20028;-80
2024/03/24 12:10:28;;;;;;;2.70;1.40;;;;;;;;;;5053140;28;20040;-79
2024/03/24 12:13:15;;;;;;;5.00;1.70;;;;;;;;;;5062862;28;20567;-79
2024/03/24 12:16:00;;;;;;;2.35;1.27;;;;;;;;;;5086969;28;20016;-79
2024/03/24 12:18:45;;;;;;;3.92;1.58;;;;;;;;;;5058830;28;20039;-79
2024/03/24 12:21:31;;;;;;;4.82;1.70;;;;;;;;;;5073202;28;20071;-80
2024/03/24 12:24:16;;;;;;;3.42;1.80;;;;;;;;;;5054644;28;20028;-81
2024/03/24 12:27:01;;;;;;;2.47;1.40;;;;;;;;;;5046940;28;20040;-81
2024/03/24 12:29:55;;;;;;;3.45;1.95;;;;;;;;;;5070240;28;20039;-81
2024/03/24 12:32:40;;;;;;;3.50;1.70;;;;;;;;;;5074235;28;20487;-81
2024/03/24 12:35:25;;;;;;;7.35;1.67;;;;;;;;;;5067329;28;20028;-80
2024/03/24 12:38:12;;;;;;;4.72;1.75;;;;;;;;;;5059947;28;20032;-80
2024/03/24 12:40:57;;;;;;;2.67;1.50;;;;;;;;;;5084071;28;20032;-79
2024/03/24 12:43:49;;;;;;;3.88;1.60;;;;;;;;;;5077557;28;20024;-80
2024/03/24 12:46:35;;;;;;;6.05;2.55;;;;;;;;;;5072083;28;20112;-80
2024/03/24 12:49:26;;;;;;;3.75;1.95;;;;;;;;;;5071296;28;20101;-80
2024/03/24 12:52:11;;;;;;;3.70;1.83;;;;;;;;;;5103713;28;20028;-80
2024/03/24 12:55:05;;;;;;;3.88;1.77;;;;;;;;;;5066992;28;20028;-80
2024/03/24 12:57:51;;;;;;;4.63;2.08;;;;;;;;;;5065840;28;20020;-79
2024/03/24 13:00:37;;;;;;;6.03;1.95;;;;;;;;;;5061655;28;20042;-80
2024/03/24 13:03:25;;;;;;;3.75;1.55;;;;;;;;;;5078216;28;20032;-79
2024/03/24 13:06:17;;;;;;;4.97;1.42;;;;;;;;;;5093492;28;20034;-79
2024/03/24 13:09:06;;;;;;;3.20;1.65;;;;;;;;;;5078675;28;20051;-80
2024/03/24 13:11:52;;;;;;;4.35;1.50;;;;;;;;;;5074519;28;20024;-80
2024/03/24 13:14:37;;;;;;;4.85;1.55;;;;;;;;;;5068599;28;20101;-79
2024/03/24 13:17:29;;;;;;;3.03;1.88;;;;;;;;;;5045034;28;20316;-79
2024/03/24 13:20:15;;;;;;;4.93;1.30;;;;;;;;;;5070112;28;20036;-79
2024/03/24 13:23:01;;;;;;;5.55;2.40;;;;;;;;;;5085819;28;20444;-79
2024/03/24 13:25:47;;;;;;;3.55;2.13;;;;;;;;;;5092905;28;20019;-79
2024/03/24 13:28:33;;;;;;;4.93;1.52;;;;;;;;;;5076745;28;20032;-79
2024/03/24 13:31:18;;;;;;;7.43;2.10;;;;;;;;;;5091390;28;20043;-79
2024/03/24 13:34:03;;;;;;;6.63;2.42;;;;;;;;;;5077800;28;20515;-79
2024/03/24 13:37:13;;;;;;;4.65;1.55;;;;;;;;;;5057000;28;20090;-80
2024/03/24 13:40:16;;;;;;;4.32;2.05;;;;;;;;;;5082081;28;20021;-79
2024/03/24 13:43:26;;;;;;;3.28;1.40;;;;;;;;;;5087526;28;20415;-80
2024/03/24 13:46:23;;;;;;;4.00;1.73;;;;;;;;;;5107235;28;20107;-80
2024/03/24 13:49:08;;;;;;;4.50;2.10;;;;;;;;;;5091793;28;20023;-80
2024/03/24 13:51:55;;;;;;;2.58;1.35;;;;;;;;;;5099593;28;20055;-80
2024/03/24 13:54:40;;;;;;;3.95;1.85;;;;;;;;;;5071228;28;20055;-79
2024/03/24 13:57:26;;;;;;;3.88;1.67;;;;;;;;;;5071470;28;20046;-80
2024/03/24 14:00:11;;;;;;;3.35;1.73;;;;;;;;;;5069335;28;20034;-80
2024/03/24 14:02:57;;;;;;;2.30;1.30;;;;;;;;;;5066034;28;20074;-80
2024/03/24 14:05:42;;;;;;;2.30;1.63;;;;;;;;;;5057795;28;20020;-80
2024/03/24 14:08:28;;;;;;;3.33;1.40;;;;;;;;;;5071450;28;20024;-79
2024/03/24 14:11:13;;;;;;;5.47;2.08;;;;;;;;;;5068232;28;20054;-80
2024/03/24 14:14:14;;;;;;;2.13;1.30;;;;;;;;;;5067999;28;20055;-78
2024/03/24 14:17:10;;;;;;;3.10;1.35;;;;;;;;;;5076775;28;20526;-79
2024/03/24 14:19:59;;;;;;;2.38;1.20;;;;;;;;;;5065520;28;20074;-79
2024/03/24 14:22:50;;;;;;;3.58;1.38;;;;;;;;;;5064006;28;20113;-79
2024/03/24 14:25:40;;;;;;;3.10;1.45;;;;;;;;;;5065252;28;20107;-79
2024/03/24 14:28:27;;;;;;;2.20;1.55;;;;;;;;;;5058260;28;20032;-78
2024/03/24 14:31:18;;;;;;;4.28;1.58;;;;;;;;;;5069366;28;20486;-80
2024/03/24 14:34:03;;;;;;;5.70;1.90;;;;;;;;;;5064269;28;20052;-80
2024/03/24 14:37:07;;;;;;;5.10;1.70;;;;;;;;;;5050989;28;20037;-80
2024/03/24 14:39:56;;;;;;;4.32;1.75;;;;;;;;;;5057000;28;20052;-80
2024/03/24 14:42:49;;;;;;;3.67;1.80;;;;;;;;;;5067814;28;20078;-80
2024/03/24 14:45:37;;;;;;;4.45;2.10;;;;;;;;;;5081713;28;20028;-80
2024/03/24 14:48:26;;;;;;;8.18;2.38;;;;;;;;;;5071368;28;20058;-80
2024/03/24 14:51:11;;;;;;;2.90;1.42;;;;;;;;;;5052217;28;20479;-80
2024/03/24 14:53:57;;;;;;;3.90;1.52;;;;;;;;;;5070999;28;20073;-81
2024/03/24 14:56:42;;;;;;;3.13;1.42;;;;;;;;;;5067132;28;20020;-80
2024/03/24 14:59:28;;;;;;;3.20;1.25;;;;;;;;;;5078392;28;20027;-81
2024/03/24 15:02:14;;;;;;;3.10;1.50;;;;;;;;;;5075333;28;20046;-80
2024/03/24 15:05:00;;;;;;;2.95;1.45;;;;;;;;;;5067353;28;20059;-80
2024/03/24 15:07:45;;;;;;;5.85;1.67;;;;;;;;;;5058394;28;20024;-79
2024/03/24 15:10:30;;;;;;;5.78;1.55;;;;;;;;;;5076529;28;20043;-79
2024/03/24 15:13:14;;;;;;;3.92;1.33;;;;;;;;;;5076056;28;20055;-79
2024/03/24 15:15:59;;;;;;;5.07;1.35;;;;;;;;;;5087752;28;20494;-78
2024/03/24 15:18:45;;;;;;;1.67;1.35;;;;;;;;;;5100072;28;20539;-78
2024/03/24 15:21:30;;;;;;;3.45;1.00;;;;;;;;;;5095255;28;20036;-80
2024/03/24 15:24:16;;;;;;;3.58;1.52;;;;;;;;;;5110675;28;20023;-81
2024/03/24 15:27:10;;;;;;;2.97;1.30;;;;;;;;;;5085818;28;20040;-81
2024/03/24 15:29:55;;;;;;;2.75;1.10;;;;;;;;;;5080863;28;20024;-81
2024/03/24 15:32:40;;;;;;;1.67;1.00;;;;;;;;;;5079769;28;20130;-79
2024/03/24 15:35:26;;;;;;;1.38;0.95;;;;;;;;;;5077275;28;20455;-79
2024/03/24 15:38:11;;;;;;;1.13;0.95;;;;;;;;;;5088661;28;20024;-79
2024/03/24 15:40:56;;;;;;;1.70;0.93;;;;;;;;;;5069123;28;20016;-78
2024/03/24 15:43:51;;;;;;;1.88;1.17;;;;;;;;;;5084931;28;20047;-79
2024/03/24 15:46:36;;;;;;;2.22;0.93;;;;;;;;;;5073349;28;20391;-79
2024/03/24 15:49:21;;;;;;;4.97;1.10;;;;;;;;;;5067048;28;20055;-79
2024/03/24 15:52:06;;;;;;;3.92;1.38;;;;;;;;;;5066282;28;20032;-79
2024/03/24 15:54:51;;;;;;;1.65;0.90;;;;;;;;;;5054099;28;20040;-79
2024/03/24 15:57:54;;;;;;;3.17;1.20;;;;;;;;;;5070956;28;20046;-78
2024/03/24 16:00:40;;;;;;;2.92;1.40;;;;;;;;;;5064029;28;20091;-79
2024/03/24 16:03:26;;;;;;;2.47;1.30;;;;;;;;;;5088612;28;20035;-78
2024/03/24 16:06:12;;;;;;;3.33;1.35;;;;;;;;;;5094353;28;20035;-79
2024/03/24 16:09:00;;;;;;;3.33;1.40;;;;;;;;;;5079057;28;20028;-80
2024/03/24 16:11:48;;;;;;;2.63;1.05;;;;;;;;;;5057376;28;20028;-80
2024/03/24 16:14:38;;;;;;;2.40;1.27;;;;;;;;;;5073632;28;20044;-80
2024/03/24 16:17:23;;;;;;;1.98;1.00;;;;;;;;;;5074544;28;20040;-80
2024/03/24 16:20:15;;;;;;;4.57;1.13;;;;;;;;;;5076492;28;20031;-80
2024/03/24 16:23:01;;;;;;;2.17;1.10;;;;;;;;;;5087778;28;20138;-80
2024/03/24 16:25:46;;;;;;;3.58;1.10;;;;;;;;;;5073511;28;20059;-80
2024/03/24 16:28:31;;;;;;;1.55;0.80;;;;;;;;;;5076373;28;20101;-80
2024/03/24 16:31:19;;;;;;;1.70;1.00;;;;;;;;;;5105922;28;20031;-80
2024/03/24 16:34:04;;;;;;;5.30;1.50;;;;;;;;;;5053043;28;20087;-79
2024/03/24 16:36:49;;;;;;;2.20;1.23;;;;;;;;;;5064083;28;20039;-79